Time;durP1;ratioP1;P1;durP2;ratioP2;P2;SDS_P1;SDS_P2;PMS_P1;PMS_P2;Temp;Humidity;BMP_temperature;BMP_pressure;BME280_temperature;BME280_humidity;BME280_pressure;Samples;Min_cycle;Max_cycle;Signal;HPM_P1;HPM_P2
2023/01/27 00:01:14;;;;;;;11.90;3.10;;;;;;;;;;6287792;22;20043;-83
2023/01/27 00:03:41;;;;;;;8.65;2.83;;;;;;;;;;6286549;22;20020;-84
2023/01/27 00:06:11;;;;;;;10.85;2.88;;;;;;;;;;6286606;22;20037;-83
2023/01/27 00:08:38;;;;;;;11.43;3.72;;;;;;;;;;6287063;22;20119;-85
2023/01/27 00:13:49;;;;;;;13.82;3.30;;;;;;;;;;6284126;22;20568;-83
2023/01/27 00:16:16;;;;;;;12.65;3.70;;;;;;;;;;6283596;22;20031;-84
2023/01/27 00:18:42;;;;;;;13.30;4.13;;;;;;;;;;6283903;22;20464;-83
2023/01/27 00:26:41;;;;;;;10.32;3.20;;;;;;;;;;6284722;22;20028;-83
2023/01/27 00:29:08;;;;;;;13.00;3.17;;;;;;;;;;6283981;22;20031;-83
2023/01/27 00:34:19;;;;;;;9.90;3.13;;;;;;;;;;6284536;22;20442;-85
2023/01/27 00:36:46;;;;;;;12.82;3.60;;;;;;;;;;6282994;22;20112;-83
2023/01/27 00:39:14;;;;;;;12.73;3.63;;;;;;;;;;6282762;22;20034;-83
2023/01/27 00:41:41;;;;;;;13.77;3.60;;;;;;;;;;6281148;22;20477;-82
2023/01/27 00:44:11;;;;;;;13.90;4.35;;;;;;;;;;6283567;22;20020;-82
2023/01/27 00:46:39;;;;;;;11.68;4.10;;;;;;;;;;6253244;22;20024;-83
2023/01/27 00:49:05;;;;;;;8.45;4.18;;;;;;;;;;6278547;22;20043;-83
2023/01/27 00:51:32;;;;;;;16.27;4.25;;;;;;;;;;6278805;22;20050;-84
2023/01/27 00:53:58;;;;;;;13.48;3.80;;;;;;;;;;6278908;22;20655;-83
2023/01/27 00:56:27;;;;;;;10.50;4.07;;;;;;;;;;6276875;22;20016;-84
2023/01/27 00:58:53;;;;;;;13.45;3.67;;;;;;;;;;6248367;22;20099;-84
2023/01/27 01:01:19;;;;;;;13.23;3.83;;;;;;;;;;6277293;22;20051;-83
2023/01/27 01:03:46;;;;;;;9.63;3.95;;;;;;;;;;6277219;22;20028;-83
2023/01/27 01:06:15;;;;;;;15.00;4.97;;;;;;;;;;6276703;22;20027;-83
2023/01/27 01:08:42;;;;;;;12.13;4.03;;;;;;;;;;6275982;22;20063;-84
2023/01/27 01:11:12;;;;;;;10.98;4.50;;;;;;;;;;6276831;22;20565;-83
2023/01/27 01:13:39;;;;;;;11.70;4.43;;;;;;;;;;6276674;22;20567;-83
2023/01/27 01:16:07;;;;;;;12.55;4.82;;;;;;;;;;6278056;22;20107;-83
2023/01/27 01:18:34;;;;;;;11.82;4.78;;;;;;;;;;6277010;22;20091;-83
2023/01/27 01:21:00;;;;;;;10.85;4.30;;;;;;;;;;6277587;22;20024;-83
2023/01/27 01:23:27;;;;;;;12.02;5.05;;;;;;;;;;6277404;22;20108;-83
2023/01/27 01:25:54;;;;;;;14.45;5.00;;;;;;;;;;6247790;22;20036;-83
2023/01/27 01:28:20;;;;;;;15.20;4.75;;;;;;;;;;6275883;22;20428;-84
2023/01/27 01:30:47;;;;;;;11.88;4.55;;;;;;;;;;6275152;22;20030;-83
2023/01/27 01:33:14;;;;;;;16.10;4.72;;;;;;;;;;6275993;22;20039;-83
2023/01/27 01:35:40;;;;;;;14.25;5.95;;;;;;;;;;6276611;22;20028;-84
2023/01/27 01:38:06;;;;;;;15.23;5.03;;;;;;;;;;6274417;22;20056;-84
2023/01/27 01:40:40;;;;;;;12.82;5.30;;;;;;;;;;6277002;22;20359;-83
2023/01/27 01:43:12;;;;;;;14.20;4.75;;;;;;;;;;6276840;22;20481;-83
2023/01/27 01:45:44;;;;;;;13.55;4.45;;;;;;;;;;6249363;22;20008;-83
2023/01/27 01:48:13;;;;;;;13.27;5.28;;;;;;;;;;6275933;22;20384;-83
2023/01/27 01:50:41;;;;;;;11.50;4.80;;;;;;;;;;6249023;22;20055;-83
2023/01/27 01:53:08;;;;;;;16.65;5.20;;;;;;;;;;6276395;22;20465;-83
2023/01/27 01:55:35;;;;;;;14.68;5.43;;;;;;;;;;6276749;22;20055;-83
2023/01/27 01:58:03;;;;;;;15.80;5.13;;;;;;;;;;6275211;22;20028;-83
2023/01/27 02:00:29;;;;;;;13.98;5.00;;;;;;;;;;6276172;22;20024;-84
2023/01/27 02:02:56;;;;;;;14.25;5.47;;;;;;;;;;6275683;22;20127;-83
2023/01/27 02:05:27;;;;;;;14.52;5.68;;;;;;;;;;6276146;22;20031;-83
2023/01/27 02:07:53;;;;;;;14.40;4.97;;;;;;;;;;6275903;22;20024;-83
2023/01/27 02:10:19;;;;;;;15.75;5.30;;;;;;;;;;6276789;22;20039;-83
2023/01/27 02:12:45;;;;;;;13.88;5.53;;;;;;;;;;6276335;22;20024;-84
2023/01/27 02:15:12;;;;;;;16.83;5.88;;;;;;;;;;6277013;22;20078;-83
2023/01/27 02:17:39;;;;;;;11.90;4.85;;;;;;;;;;6275605;22;20126;-83
2023/01/27 02:20:24;;;;;;;11.95;4.82;;;;;;;;;;6276169;22;20020;-83
2023/01/27 02:23:03;;;;;;;14.23;5.13;;;;;;;;;;6277104;22;20016;-84
2023/01/27 02:25:40;;;;;;;16.27;5.40;;;;;;;;;;6276087;22;20135;-83
2023/01/27 02:28:06;;;;;;;13.75;4.70;;;;;;;;;;6275384;22;20388;-83
2023/01/27 02:30:33;;;;;;;17.27;5.45;;;;;;;;;;6274875;22;20023;-83
2023/01/27 02:32:59;;;;;;;12.98;5.20;;;;;;;;;;6274308;22;20513;-83
2023/01/27 02:35:35;;;;;;;12.57;5.28;;;;;;;;;;5111145;27;20394;-84
2023/01/27 02:38:02;;;;;;;17.30;5.53;;;;;;;;;;5117431;27;20519;-84
2023/01/27 02:40:29;;;;;;;15.25;5.75;;;;;;;;;;5085825;27;20498;-84
2023/01/27 02:42:56;;;;;;;14.60;5.55;;;;;;;;;;5097541;27;20496;-84
2023/01/27 02:45:22;;;;;;;17.42;6.13;;;;;;;;;;5097169;28;20049;-84
2023/01/27 02:47:48;;;;;;;16.33;5.70;;;;;;;;;;5096763;27;20062;-84
2023/01/27 02:50:15;;;;;;;15.25;5.55;;;;;;;;;;5093050;27;20586;-84
2023/01/27 02:52:42;;;;;;;12.70;5.82;;;;;;;;;;5098387;27;20048;-84
2023/01/27 02:55:09;;;;;;;13.40;5.13;;;;;;;;;;5094302;27;20057;-84
2023/01/27 02:57:36;;;;;;;18.30;6.63;;;;;;;;;;5101801;27;20172;-84
2023/01/27 03:00:03;;;;;;;21.67;6.85;;;;;;;;;;5092684;27;20063;-84
2023/01/27 03:02:29;;;;;;;16.17;6.20;;;;;;;;;;5083505;28;20580;-84
2023/01/27 03:04:56;;;;;;;18.75;5.95;;;;;;;;;;5102505;28;20052;-84
2023/01/27 03:07:23;;;;;;;16.58;6.95;;;;;;;;;;5094847;28;20052;-84
2023/01/27 03:09:49;;;;;;;18.45;7.03;;;;;;;;;;5101561;28;20060;-84
2023/01/27 03:12:18;;;;;;;22.70;7.82;;;;;;;;;;5097596;27;20084;-84
2023/01/27 03:20:15;;;;;;;15.80;6.78;;;;;;;;;;5107801;27;20062;-84
2023/01/27 03:22:42;;;;;;;21.70;7.22;;;;;;;;;;5086787;27;20063;-84
2023/01/27 03:25:08;;;;;;;17.33;6.97;;;;;;;;;;5093391;27;20052;-84
2023/01/27 03:27:35;;;;;;;18.58;6.60;;;;;;;;;;5096645;27;20044;-84
2023/01/27 03:30:01;;;;;;;15.20;7.55;;;;;;;;;;5097175;28;20048;-84
2023/01/27 03:32:29;;;;;;;23.02;8.48;;;;;;;;;;5091207;28;20423;-84
2023/01/27 03:35:02;;;;;;;21.95;7.90;;;;;;;;;;5099642;27;20056;-84
2023/01/27 03:48:35;;;;;;;20.35;7.45;;;;;;;;;;5077524;28;20056;-84
2023/01/27 03:51:02;;;;;;;18.80;7.63;;;;;;;;;;5077283;28;20049;-84
2023/01/27 03:53:28;;;;;;;17.23;7.80;;;;;;;;;;5083343;28;20060;-84
2023/01/27 03:55:55;;;;;;;16.20;7.80;;;;;;;;;;5096023;27;20056;-84
2023/01/27 03:58:23;;;;;;;17.40;7.20;;;;;;;;;;5086815;28;20087;-84
2023/01/27 04:00:51;;;;;;;15.98;6.75;;;;;;;;;;5081202;28;20052;-84
2023/01/27 04:09:07;;;;;;;14.48;5.93;;;;;;;;;;5083765;28;20141;-84
2023/01/27 04:14:19;;;;;;;10.63;4.65;;;;;;;;;;5075592;28;20131;-84
2023/01/27 04:16:46;;;;;;;11.55;5.43;;;;;;;;;;5083110;28;20473;-84
2023/01/27 04:19:15;;;;;;;13.73;5.90;;;;;;;;;;5083664;28;20516;-84
2023/01/27 04:21:42;;;;;;;12.73;5.85;;;;;;;;;;5076365;28;20075;-84
2023/01/27 04:24:16;;;;;;;13.27;5.90;;;;;;;;;;5087403;28;20052;-84
2023/01/27 04:26:43;;;;;;;11.18;5.38;;;;;;;;;;5093231;27;21034;-84
2023/01/27 04:29:10;;;;;;;13.70;5.82;;;;;;;;;;5075782;27;20064;-84
2023/01/27 04:31:37;;;;;;;15.77;5.80;;;;;;;;;;5086078;28;20140;-84
2023/01/27 04:34:03;;;;;;;11.43;5.45;;;;;;;;;;5076510;28;20650;-84
2023/01/27 04:36:30;;;;;;;12.38;5.45;;;;;;;;;;5084464;28;20061;-84
2023/01/27 04:38:57;;;;;;;12.43;5.22;;;;;;;;;;5086381;28;20060;-84
2023/01/27 04:41:24;;;;;;;15.02;5.80;;;;;;;;;;5073453;28;20055;-84
2023/01/27 04:43:50;;;;;;;12.18;5.68;;;;;;;;;;5079421;28;20057;-84
2023/01/27 04:46:16;;;;;;;10.25;5.25;;;;;;;;;;5070235;28;20567;-84
2023/01/27 04:48:43;;;;;;;12.73;5.57;;;;;;;;;;5083225;28;20060;-84
2023/01/27 04:51:09;;;;;;;12.07;5.45;;;;;;;;;;5088809;28;20316;-85
2023/01/27 04:53:35;;;;;;;12.05;5.03;;;;;;;;;;5086174;28;20092;-85
2023/01/27 04:56:06;;;;;;;10.07;4.72;;;;;;;;;;5076450;28;20060;-85
2023/01/27 04:58:32;;;;;;;9.07;4.35;;;;;;;;;;5074269;28;20068;-84
2023/01/27 05:01:01;;;;;;;10.23;4.70;;;;;;;;;;5076337;28;20049;-84
2023/01/27 05:03:27;;;;;;;8.80;4.00;;;;;;;;;;5080533;27;20146;-84
2023/01/27 05:05:54;;;;;;;10.52;4.55;;;;;;;;;;5073294;28;20137;-85
2023/01/27 05:08:20;;;;;;;10.07;4.35;;;;;;;;;;5083809;28;20518;-84
2023/01/27 05:10:46;;;;;;;7.45;4.07;;;;;;;;;;5088763;28;20052;-84
2023/01/27 05:13:13;;;;;;;8.82;4.30;;;;;;;;;;5083168;28;20057;-84
2023/01/27 05:15:39;;;;;;;8.05;3.70;;;;;;;;;;5074569;28;20532;-84
2023/01/27 05:18:05;;;;;;;9.90;3.55;;;;;;;;;;5077531;28;20057;-84
2023/01/27 05:20:32;;;;;;;10.23;3.85;;;;;;;;;;5071584;28;20064;-84
2023/01/27 05:25:43;;;;;;;8.48;3.17;;;;;;;;;;5077879;28;20048;-84
2023/01/27 05:28:10;;;;;;;7.97;3.35;;;;;;;;;;5082746;28;20061;-84
2023/01/27 05:30:37;;;;;;;8.77;3.30;;;;;;;;;;5075982;28;20088;-84
2023/01/27 05:33:07;;;;;;;7.80;3.80;;;;;;;;;;5080528;28;20052;-84
2023/01/27 05:35:33;;;;;;;8.50;3.67;;;;;;;;;;5085675;28;20778;-85
2023/01/27 05:38:00;;;;;;;7.68;3.38;;;;;;;;;;5081435;28;20511;-84
2023/01/27 05:40:26;;;;;;;6.97;3.42;;;;;;;;;;5077297;28;20056;-85
2023/01/27 05:42:53;;;;;;;7.53;3.30;;;;;;;;;;5077367;28;20513;-84
2023/01/27 05:45:19;;;;;;;6.80;3.15;;;;;;;;;;5075520;28;20561;-85
2023/01/27 05:47:50;;;;;;;6.63;3.40;;;;;;;;;;5067000;28;20049;-85
2023/01/27 05:50:17;;;;;;;9.52;3.38;;;;;;;;;;5081141;28;20056;-83
2023/01/27 05:52:46;;;;;;;8.95;3.97;;;;;;;;;;5078213;28;20057;-86
2023/01/27 05:55:12;;;;;;;8.18;3.30;;;;;;;;;;5085092;28;20052;-85
2023/01/27 05:57:39;;;;;;;9.63;3.78;;;;;;;;;;5070382;28;20049;-84
2023/01/27 06:00:06;;;;;;;8.90;4.05;;;;;;;;;;5076524;28;20136;-86
2023/01/27 06:02:32;;;;;;;7.45;3.85;;;;;;;;;;5083156;28;20052;-85
2023/01/27 06:04:59;;;;;;;6.90;3.58;;;;;;;;;;5065839;28;20068;-85
2023/01/27 06:07:25;;;;;;;7.57;3.85;;;;;;;;;;5074856;28;20065;-85
2023/01/27 06:09:52;;;;;;;6.93;3.53;;;;;;;;;;5077441;28;20087;-85
2023/01/27 06:12:19;;;;;;;7.13;3.45;;;;;;;;;;5083085;28;20143;-84
2023/01/27 06:14:45;;;;;;;6.88;3.10;;;;;;;;;;5085879;28;20430;-85
2023/01/27 06:17:12;;;;;;;7.47;3.53;;;;;;;;;;5076725;28;20053;-84
2023/01/27 06:19:38;;;;;;;8.75;3.95;;;;;;;;;;5065933;28;20049;-83
2023/01/27 06:22:04;;;;;;;10.15;3.47;;;;;;;;;;5077618;28;20087;-84
2023/01/27 06:24:31;;;;;;;6.32;3.03;;;;;;;;;;5073300;28;20059;-85
2023/01/27 06:26:59;;;;;;;8.65;3.35;;;;;;;;;;5076963;28;20055;-84
2023/01/27 06:29:26;;;;;;;7.43;3.67;;;;;;;;;;5072915;28;20583;-85
2023/01/27 06:31:52;;;;;;;6.95;3.53;;;;;;;;;;5074902;28;20053;-85
2023/01/27 06:34:19;;;;;;;8.38;3.33;;;;;;;;;;5085810;28;20061;-84
2023/01/27 06:36:45;;;;;;;8.70;3.53;;;;;;;;;;5078584;28;20052;-83
2023/01/27 06:39:11;;;;;;;7.22;3.28;;;;;;;;;;5076176;28;20397;-84
2023/01/27 06:41:38;;;;;;;7.88;3.20;;;;;;;;;;5065616;28;20094;-84
2023/01/27 06:44:04;;;;;;;7.22;3.25;;;;;;;;;;5078607;28;20052;-85
2023/01/27 06:46:30;;;;;;;6.65;2.95;;;;;;;;;;5086764;28;20048;-84
2023/01/27 06:48:57;;;;;;;5.93;2.90;;;;;;;;;;5083225;28;20134;-84
2023/01/27 06:51:23;;;;;;;5.93;3.13;;;;;;;;;;5081264;28;20068;-84
2023/01/27 06:53:49;;;;;;;7.15;2.88;;;;;;;;;;5065881;28;20052;-84
2023/01/27 06:56:16;;;;;;;7.03;3.30;;;;;;;;;;5083966;28;20262;-84
2023/01/27 06:58:43;;;;;;;9.75;3.17;;;;;;;;;;5081260;28;20202;-84
2023/01/27 07:01:09;;;;;;;5.75;2.92;;;;;;;;;;5078825;28;20055;-85
2023/01/27 07:03:35;;;;;;;9.00;2.85;;;;;;;;;;5092101;28;20058;-85
2023/01/27 07:06:02;;;;;;;6.20;2.90;;;;;;;;;;5080327;28;20059;-85
2023/01/27 07:08:31;;;;;;;6.45;2.88;;;;;;;;;;5084829;28;20049;-85
2023/01/27 07:11:00;;;;;;;7.53;2.90;;;;;;;;;;5085069;28;20079;-85
2023/01/27 07:13:26;;;;;;;5.75;3.17;;;;;;;;;;5079446;28;20089;-85
2023/01/27 07:15:54;;;;;;;6.28;3.00;;;;;;;;;;5069102;28;20136;-85
2023/01/27 07:18:20;;;;;;;6.18;3.15;;;;;;;;;;5075869;28;20056;-85
2023/01/27 07:20:46;;;;;;;6.07;2.75;;;;;;;;;;5087869;28;20531;-84
2023/01/27 07:23:13;;;;;;;6.35;2.67;;;;;;;;;;5073847;28;20084;-85
2023/01/27 07:25:39;;;;;;;7.45;3.00;;;;;;;;;;5108876;27;20530;-84
2023/01/27 07:28:05;;;;;;;6.55;3.00;;;;;;;;;;5083971;28;20072;-85
2023/01/27 07:30:32;;;;;;;6.10;2.60;;;;;;;;;;5075585;28;20554;-84
2023/01/27 07:33:03;;;;;;;6.40;3.00;;;;;;;;;;5085817;28;20059;-85
2023/01/27 07:35:29;;;;;;;11.80;3.13;;;;;;;;;;5093293;28;20599;-84
2023/01/27 07:37:56;;;;;;;6.10;2.90;;;;;;;;;;5090357;28;20138;-84
2023/01/27 07:40:23;;;;;;;8.05;3.10;;;;;;;;;;5076706;27;20056;-84
2023/01/27 07:42:49;;;;;;;9.13;3.17;;;;;;;;;;5080882;28;20553;-85
2023/01/27 07:45:16;;;;;;;7.15;3.30;;;;;;;;;;5087690;28;20048;-85
2023/01/27 07:47:42;;;;;;;7.13;2.95;;;;;;;;;;5087704;28;20139;-84
2023/01/27 07:50:09;;;;;;;5.95;2.90;;;;;;;;;;5087650;28;20052;-85
2023/01/27 07:52:35;;;;;;;7.63;3.20;;;;;;;;;;5088927;28;20626;-83
2023/01/27 07:55:01;;;;;;;5.53;2.90;;;;;;;;;;5076543;28;20060;-84
2023/01/27 07:57:28;;;;;;;6.95;3.55;;;;;;;;;;5069562;28;20064;-84
2023/01/27 07:59:55;;;;;;;10.23;3.30;;;;;;;;;;5102935;27;20044;-84
2023/01/27 08:02:22;;;;;;;6.38;2.95;;;;;;;;;;5111916;27;20060;-83
2023/01/27 08:04:48;;;;;;;6.22;2.70;;;;;;;;;;5091911;28;20074;-85
2023/01/27 08:07:18;;;;;;;5.95;3.03;;;;;;;;;;5093001;28;20056;-84
2023/01/27 08:09:45;;;;;;;6.50;2.50;;;;;;;;;;5077231;28;20048;-84
2023/01/27 08:12:11;;;;;;;5.13;2.28;;;;;;;;;;5089998;28;20057;-84
2023/01/27 08:14:37;;;;;;;7.07;3.08;;;;;;;;;;5078472;28;20139;-85
2023/01/27 08:17:04;;;;;;;5.88;2.72;;;;;;;;;;5079424;28;20057;-84
2023/01/27 08:19:30;;;;;;;4.40;2.05;;;;;;;;;;5079282;28;20049;-83
2023/01/27 08:21:56;;;;;;;7.40;2.67;;;;;;;;;;5081721;28;20081;-83
2023/01/27 08:24:23;;;;;;;6.30;2.55;;;;;;;;;;5075402;28;20144;-84
2023/01/27 08:26:50;;;;;;;6.97;2.83;;;;;;;;;;5086795;28;20071;-84
2023/01/27 08:29:16;;;;;;;6.18;2.47;;;;;;;;;;5087733;28;20056;-84
2023/01/27 08:31:42;;;;;;;5.90;2.60;;;;;;;;;;5081475;28;20072;-84
2023/01/27 08:34:09;;;;;;;8.20;2.42;;;;;;;;;;5076969;28;20578;-84
2023/01/27 08:36:35;;;;;;;6.38;2.67;;;;;;;;;;5086365;28;20480;-85
2023/01/27 08:39:01;;;;;;;7.43;2.42;;;;;;;;;;5082418;28;20064;-83
2023/01/27 08:41:28;;;;;;;5.65;2.40;;;;;;;;;;5078832;28;20139;-84
2023/01/27 08:43:54;;;;;;;6.82;2.65;;;;;;;;;;5089001;28;20502;-84
2023/01/27 08:46:20;;;;;;;6.95;2.20;;;;;;;;;;5079563;28;20044;-84
2023/01/27 08:48:49;;;;;;;6.80;2.40;;;;;;;;;;5081961;28;20080;-84
2023/01/27 08:51:15;;;;;;;4.78;2.35;;;;;;;;;;5082384;28;20048;-84
2023/01/27 08:53:41;;;;;;;6.30;1.90;;;;;;;;;;5077281;28;20135;-84
2023/01/27 08:56:12;;;;;;;5.65;2.30;;;;;;;;;;5075102;28;20481;-84
2023/01/27 08:58:42;;;;;;;6.05;2.28;;;;;;;;;;5083072;28;20136;-84
2023/01/27 09:01:08;;;;;;;5.10;2.38;;;;;;;;;;5068265;28;20057;-84
2023/01/27 09:03:37;;;;;;;6.07;2.10;;;;;;;;;;5067608;28;20057;-84
2023/01/27 09:06:04;;;;;;;6.00;2.10;;;;;;;;;;5067121;28;20053;-84
2023/01/27 09:08:30;;;;;;;7.13;2.40;;;;;;;;;;5074813;28;20084;-84
2023/01/27 09:10:57;;;;;;;5.85;2.40;;;;;;;;;;5070488;28;20091;-85
2023/01/27 09:13:23;;;;;;;5.60;2.50;;;;;;;;;;5066657;28;20088;-83
2023/01/27 09:15:50;;;;;;;5.22;2.40;;;;;;;;;;5068033;28;20052;-84
2023/01/27 09:18:17;;;;;;;5.47;2.28;;;;;;;;;;5067835;28;20049;-85
2023/01/27 09:20:43;;;;;;;6.38;2.58;;;;;;;;;;5072329;28;20099;-85
2023/01/27 09:23:10;;;;;;;6.68;2.40;;;;;;;;;;5067901;28;20136;-83
2023/01/27 09:25:36;;;;;;;8.57;2.00;;;;;;;;;;5067860;28;20057;-84
2023/01/27 09:28:03;;;;;;;6.43;2.35;;;;;;;;;;5068004;28;20084;-85
2023/01/27 09:30:29;;;;;;;6.28;2.47;;;;;;;;;;5067613;28;20502;-85
2023/01/27 09:33:00;;;;;;;5.82;2.53;;;;;;;;;;5076734;28;20052;-85
2023/01/27 09:35:31;;;;;;;4.75;2.25;;;;;;;;;;5087979;28;20633;-84
2023/01/27 09:37:58;;;;;;;9.10;2.40;;;;;;;;;;5081468;28;20083;-85
2023/01/27 09:40:30;;;;;;;6.10;2.60;;;;;;;;;;5083000;28;20059;-85
2023/01/27 09:43:02;;;;;;;5.03;2.17;;;;;;;;;;5078007;28;20048;-85
2023/01/27 09:45:29;;;;;;;6.07;2.13;;;;;;;;;;5086473;28;20055;-84
2023/01/27 09:47:55;;;;;;;8.82;2.20;;;;;;;;;;5085833;28;20052;-85
2023/01/27 09:50:40;;;;;;;11.02;2.25;;;;;;;;;;5077550;28;20061;-84
2023/01/27 09:53:13;;;;;;;5.93;2.35;;;;;;;;;;5067929;28;20506;-85
2023/01/27 09:55:52;;;;;;;6.20;1.90;;;;;;;;;;5087521;28;20430;-85
2023/01/27 09:58:22;;;;;;;3.75;1.63;;;;;;;;;;5084402;28;20049;-84
2023/01/27 10:00:52;;;;;;;;;;;;;;;;;;5068159;28;20151;-85
2023/01/27 10:03:30;;;;;;;7.35;2.05;;;;;;;;;;5065770;28;47694;-83
2023/01/27 10:05:59;;;;;;;9.40;2.25;;;;;;;;;;5081897;28;20063;-85
2023/01/27 10:08:34;;;;;;;6.68;2.53;;;;;;;;;;5087287;28;20555;-85
2023/01/27 10:11:03;;;;;;;5.68;2.08;;;;;;;;;;5087898;28;20143;-83
2023/01/27 10:13:50;;;;;;;5.15;2.25;;;;;;;;;;5069028;28;20051;-85
2023/01/27 10:16:19;;;;;;;6.05;2.47;;;;;;;;;;5098706;28;20077;-84
2023/01/27 10:18:56;;;;;;;7.78;2.42;;;;;;;;;;5065925;28;20055;-84
2023/01/27 10:21:41;;;;;;;6.68;2.28;;;;;;;;;;5066647;28;20053;-85
2023/01/27 10:24:26;;;;;;;6.55;2.45;;;;;;;;;;5076175;28;20629;-84
2023/01/27 10:27:02;;;;;;;5.95;2.75;;;;;;;;;;5087397;28;20267;-85
2023/01/27 10:29:35;;;;;;;6.97;2.20;;;;;;;;;;5077160;28;20060;-85
2023/01/27 10:32:01;;;;;;;6.18;2.55;;;;;;;;;;5066929;28;20049;-84
2023/01/27 10:34:46;;;;;;;5.35;2.60;;;;;;;;;;5066977;28;20438;-84
2023/01/27 10:37:12;;;;;;;7.50;2.72;;;;;;;;;;5067227;28;20053;-84
2023/01/27 10:39:59;;;;;;;6.30;2.63;;;;;;;;;;5065992;28;20053;-85
2023/01/27 10:42:46;;;;;;;4.72;2.40;;;;;;;;;;5098878;27;20118;-84
2023/01/27 10:45:49;;;;;;;6.57;2.58;;;;;;;;;;5081966;28;20052;-85
2023/01/27 10:48:24;;;;;;;8.63;2.95;;;;;;;;;;4983043;28;20051;-84
2023/01/27 10:50:56;;;;;;;6.80;2.58;;;;;;;;;;5065327;28;20534;-84
2023/01/27 10:53:32;;;;;;;6.93;2.90;;;;;;;;;;5087770;27;20546;-84
2023/01/27 10:56:06;;;;;;;5.10;2.47;;;;;;;;;;5111935;27;20055;-85
2023/01/27 10:58:46;;;;;;;8.07;2.63;;;;;;;;;;5090444;28;20056;-84
2023/01/27 11:01:14;;;;;;;6.38;2.90;;;;;;;;;;5090668;28;20060;-85
2023/01/27 11:03:53;;;;;;;6.38;2.72;;;;;;;;;;5107990;27;20126;-85
2023/01/27 11:06:26;;;;;;;5.63;2.72;;;;;;;;;;5075677;28;20057;-84
2023/01/27 11:09:04;;;;;;;5.82;3.03;;;;;;;;;;5070158;28;20053;-85
2023/01/27 11:11:45;;;;;;;5.03;2.53;;;;;;;;;;5071573;28;20059;-83
2023/01/27 11:14:15;;;;;;;6.28;2.75;;;;;;;;;;5086747;28;20077;-84
2023/01/27 11:16:44;;;;;;;10.73;3.05;;;;;;;;;;5088763;28;20135;-84
2023/01/27 11:19:28;;;;;;;5.35;2.80;;;;;;;;;;5069826;28;20060;-84
2023/01/27 11:21:55;;;;;;;6.13;2.63;;;;;;;;;;5070566;28;20496;-84
2023/01/27 11:24:41;;;;;;;5.53;2.92;;;;;;;;;;5069921;28;20060;-85
2023/01/27 11:27:27;;;;;;;6.43;2.55;;;;;;;;;;5070465;28;20057;-85
2023/01/27 11:29:56;;;;;;;5.65;2.92;;;;;;;;;;5079119;28;20049;-85
2023/01/27 11:32:43;;;;;;;8.02;2.90;;;;;;;;;;5069941;28;20594;-84
2023/01/27 11:35:11;;;;;;;8.55;3.03;;;;;;;;;;5072985;28;20148;-85
2023/01/27 11:37:39;;;;;;;7.90;3.03;;;;;;;;;;5078954;28;20056;-84
2023/01/27 11:40:19;;;;;;;5.80;3.08;;;;;;;;;;5070645;28;20060;-84
2023/01/27 11:42:46;;;;;;;10.50;3.92;;;;;;;;;;5082502;28;20065;-83
2023/01/27 11:45:14;;;;;;;9.38;4.03;;;;;;;;;;5089738;28;20727;-85
2023/01/27 11:47:50;;;;;;;11.63;4.80;;;;;;;;;;5089980;28;20474;-84
2023/01/27 11:50:19;;;;;;;10.05;4.60;;;;;;;;;;5086895;28;20077;-84
2023/01/27 11:53:09;;;;;;;10.95;4.80;;;;;;;;;;5073750;28;20184;-83
2023/01/27 11:55:39;;;;;;;11.35;6.05;;;;;;;;;;5066079;28;20091;-85
2023/01/27 11:58:12;;;;;;;13.63;8.25;;;;;;;;;;5079314;28;20061;-83
2023/01/27 12:00:44;;;;;;;9.93;5.30;;;;;;;;;;5095136;28;20052;-82
2023/01/27 12:03:18;;;;;;;9.27;4.80;;;;;;;;;;5085812;28;20079;-84
2023/01/27 12:05:48;;;;;;;7.68;4.07;;;;;;;;;;5080296;28;20064;-83
2023/01/27 12:08:34;;;;;;;7.50;3.30;;;;;;;;;;5077347;28;20067;-84
2023/01/27 12:11:16;;;;;;;7.38;3.15;;;;;;;;;;5081296;28;20063;-84
2023/01/27 12:13:51;;;;;;;7.10;3.22;;;;;;;;;;5092397;27;20593;-84
2023/01/27 12:16:18;;;;;;;6.22;3.25;;;;;;;;;;5076587;28;20059;-84
2023/01/27 12:18:53;;;;;;;11.55;3.60;;;;;;;;;;5079131;28;20060;-84
2023/01/27 12:21:20;;;;;;;7.40;3.95;;;;;;;;;;5082693;28;20133;-86
2023/01/27 12:23:53;;;;;;;7.68;3.72;;;;;;;;;;5076873;28;20079;-85
2023/01/27 12:26:37;;;;;;;8.02;3.90;;;;;;;;;;5079681;28;20462;-83
2023/01/27 12:29:06;;;;;;;10.52;3.70;;;;;;;;;;5082385;28;20084;-87
2023/01/27 12:31:42;;;;;;;9.93;3.70;;;;;;;;;;5100853;28;20537;-85
2023/01/27 12:34:26;;;;;;;8.63;3.35;;;;;;;;;;5083133;28;20056;-86
2023/01/27 12:36:53;;;;;;;6.60;2.97;;;;;;;;;;5086898;28;20052;-85
2023/01/27 12:39:29;;;;;;;6.95;3.05;;;;;;;;;;5071741;28;20053;-86
2023/01/27 12:41:56;;;;;;;7.20;3.08;;;;;;;;;;5080082;28;20071;-83
2023/01/27 12:44:39;;;;;;;8.00;3.33;;;;;;;;;;5080486;28;20083;-87
2023/01/27 12:47:20;;;;;;;8.70;2.97;;;;;;;;;;5087825;28;20087;-88
2023/01/27 12:49:47;;;;;;;;;;;;;;;;;;5088604;28;20111;-87
2023/01/27 12:52:18;;;;;;;5.45;2.50;;;;;;;;;;5082412;28;47123;-86
2023/01/27 12:54:45;;;;;;;6.25;2.63;;;;;;;;;;5073246;28;20422;-86
2023/01/27 12:57:14;;;;;;;5.05;2.80;;;;;;;;;;5086500;28;20057;-85
2023/01/27 12:59:51;;;;;;;6.95;2.90;;;;;;;;;;5091253;28;20056;-86
2023/01/27 13:02:20;;;;;;;4.88;2.42;;;;;;;;;;5080423;28;20048;-86
2023/01/27 13:04:52;;;;;;;5.95;2.83;;;;;;;;;;5106332;27;20156;-86
2023/01/27 13:07:22;;;;;;;9.02;2.85;;;;;;;;;;5084909;28;20053;-85
2023/01/27 13:09:54;;;;;;;5.78;2.72;;;;;;;;;;5078539;28;20048;-85
2023/01/27 13:12:27;;;;;;;4.95;2.40;;;;;;;;;;5083191;28;20069;-85
2023/01/27 13:14:54;;;;;;;6.80;2.90;;;;;;;;;;5088177;28;20147;-85
2023/01/27 13:17:59;;;;;;;7.82;3.17;;;;;;;;;;5093016;27;20484;-85
2023/01/27 13:20:32;;;;;;;5.68;2.80;;;;;;;;;;5004017;28;20529;-86
2023/01/27 13:23:01;;;;;;;7.28;2.72;;;;;;;;;;5004874;28;20058;-86
2023/01/27 13:25:37;;;;;;;6.55;3.00;;;;;;;;;;5057972;28;20048;-87
2023/01/27 13:28:05;;;;;;;6.50;2.65;;;;;;;;;;5105694;27;20834;-86
2023/01/27 13:30:35;;;;;;;5.35;2.40;;;;;;;;;;5083176;28;20044;-86
2023/01/27 13:33:10;;;;;;;5.90;2.25;;;;;;;;;;5084675;28;20051;-86
2023/01/27 13:35:39;;;;;;;6.68;2.30;;;;;;;;;;5079195;28;20419;-86
2023/01/27 13:38:18;;;;;;;8.05;2.40;;;;;;;;;;5089566;28;20603;-86
2023/01/27 13:40:45;;;;;;;5.20;2.00;;;;;;;;;;5091295;28;20110;-87
2023/01/27 13:43:15;;;;;;;4.28;1.80;;;;;;;;;;5089298;28;20335;-87
2023/01/27 13:45:43;;;;;;;7.18;2.17;;;;;;;;;;5090120;28;20122;-87
2023/01/27 13:48:12;;;;;;;5.03;2.08;;;;;;;;;;5086382;28;20049;-87
2023/01/27 13:50:42;;;;;;;6.75;2.42;;;;;;;;;;5084387;28;20963;-86
2023/01/27 13:53:12;;;;;;;6.13;2.15;;;;;;;;;;5097019;28;20141;-86
2023/01/27 13:55:38;;;;;;;5.07;2.20;;;;;;;;;;5081115;28;20045;-86
2023/01/27 13:58:14;;;;;;;5.40;1.90;;;;;;;;;;5075655;28;20603;-86
2023/01/27 14:01:01;;;;;;;5.38;2.33;;;;;;;;;;5087159;28;20056;-86
2023/01/27 14:03:34;;;;;;;5.53;2.53;;;;;;;;;;5070331;28;20160;-86
2023/01/27 14:06:06;;;;;;;5.47;2.33;;;;;;;;;;5087380;28;20096;-86
2023/01/27 14:08:52;;;;;;;5.47;2.38;;;;;;;;;;5096583;28;20863;-86
2023/01/27 14:11:27;;;;;;;7.47;2.80;;;;;;;;;;5075174;28;20075;-86
2023/01/27 14:14:12;;;;;;;5.70;2.63;;;;;;;;;;5085138;28;20059;-86
2023/01/27 14:17:09;;;;;;;5.65;2.17;;;;;;;;;;5079992;28;20421;-85
2023/01/27 14:19:38;;;;;;;9.52;2.30;;;;;;;;;;5050970;28;20056;-86
2023/01/27 14:22:07;;;;;;;6.68;2.30;;;;;;;;;;5087243;28;20143;-86
2023/01/27 14:24:36;;;;;;;4.50;2.03;;;;;;;;;;5079629;27;20207;-86
2023/01/27 14:27:07;;;;;;;5.40;2.40;;;;;;;;;;5078959;28;20547;-86
2023/01/27 14:29:52;;;;;;;5.20;1.90;;;;;;;;;;5078302;28;20107;-86
2023/01/27 14:32:21;;;;;;;4.72;1.90;;;;;;;;;;5086477;28;20052;-86
2023/01/27 14:35:08;;;;;;;4.97;2.20;;;;;;;;;;5079873;28;20052;-86
2023/01/27 14:37:44;;;;;;;6.03;2.15;;;;;;;;;;5100762;27;20056;-86
2023/01/27 14:40:13;;;;;;;5.22;2.35;;;;;;;;;;5078363;28;20115;-85
2023/01/27 14:42:50;;;;;;;4.72;2.20;;;;;;;;;;5099563;28;20124;-86
2023/01/27 14:45:25;;;;;;;6.68;3.08;;;;;;;;;;5082966;28;20055;-85
2023/01/27 14:47:51;;;;;;;6.53;2.90;;;;;;;;;;5081473;27;20482;-85
2023/01/27 14:50:21;;;;;;;6.30;3.30;;;;;;;;;;5084046;28;20135;-85
2023/01/27 14:53:04;;;;;;;7.15;3.65;;;;;;;;;;5087471;28;20811;-85
2023/01/27 14:55:39;;;;;;;5.75;2.85;;;;;;;;;;5074749;28;20053;-86
2023/01/27 14:58:09;;;;;;;6.15;2.88;;;;;;;;;;5070438;28;20048;-86
2023/01/27 15:00:46;;;;;;;7.32;3.50;;;;;;;;;;5092635;28;20056;-86
2023/01/27 15:03:12;;;;;;;9.02;4.68;;;;;;;;;;5080018;28;20608;-85
2023/01/27 15:05:46;;;;;;;9.48;4.75;;;;;;;;;;5096915;28;20052;-85
2023/01/27 15:08:25;;;;;;;9.20;4.75;;;;;;;;;;5081360;28;20057;-85
2023/01/27 15:11:09;;;;;;;7.03;3.40;;;;;;;;;;5085199;28;20056;-85
2023/01/27 15:13:55;;;;;;;8.30;3.95;;;;;;;;;;5071330;28;20766;-85
2023/01/27 15:16:31;;;;;;;7.32;3.67;;;;;;;;;;5083134;28;20056;-85
2023/01/27 15:19:24;;;;;;;10.18;3.60;;;;;;;;;;5086921;28;20056;-85
2023/01/27 15:21:58;;;;;;;8.15;3.28;;;;;;;;;;5042291;28;20102;-85
2023/01/27 15:24:32;;;;;;;6.60;3.05;;;;;;;;;;5076780;28;20063;-85
2023/01/27 15:26:59;;;;;;;7.88;3.25;;;;;;;;;;5090367;28;20053;-85
2023/01/27 15:29:26;;;;;;;7.85;3.25;;;;;;;;;;5086555;28;20059;-85
2023/01/27 15:32:23;;;;;;;6.35;3.17;;;;;;;;;;5093068;28;20139;-85
2023/01/27 15:34:51;;;;;;;6.97;3.03;;;;;;;;;;5074512;28;20049;-85